createdAt,value
2023-01-31T00:01:48.106Z,90.19
2023-01-31T00:04:14.886Z,90.42
2023-01-31T00:06:45.191Z,90.78
2023-01-31T00:09:13.054Z,91.06
2023-01-31T00:11:40.369Z,90.78
2023-01-31T00:14:08.866Z,90.40
2023-01-31T00:16:36.218Z,90.16
2023-01-31T00:19:04.318Z,89.90
2023-01-31T00:21:31.834Z,90.18
2023-01-31T00:24:00.160Z,90.07
2023-01-31T00:26:31.132Z,90.46
2023-01-31T00:29:00.933Z,89.75
2023-01-31T00:31:30.168Z,89.99
2023-01-31T00:33:57.703Z,90.12
2023-01-31T00:36:28.527Z,89.55
2023-01-31T00:38:58.164Z,89.63
2023-01-31T00:41:26.911Z,90.03
2023-01-31T00:43:53.872Z,90.20
2023-01-31T00:46:22.319Z,90.73
2023-01-31T00:48:50.041Z,91.19
2023-01-31T00:51:17.100Z,91.59
2023-01-31T00:53:43.884Z,91.65
2023-01-31T00:56:19.004Z,91.28
2023-01-31T00:58:46.204Z,91.48
2023-01-31T01:01:18.724Z,91.53
2023-01-31T01:03:46.623Z,91.57
2023-01-31T01:06:14.440Z,91.57
2023-01-31T01:08:43.426Z,92.20
2023-01-31T01:11:20.371Z,92.49
2023-01-31T01:13:47.890Z,93.16
2023-01-31T01:16:25.420Z,93.28
2023-01-31T01:18:54.996Z,93.52
2023-01-31T01:21:25.297Z,94.25
2023-01-31T01:23:52.756Z,94.40
2023-01-31T01:26:27.069Z,95.01
2023-01-31T01:28:56.236Z,95.49
2023-01-31T01:31:30.578Z,95.70
2023-01-31T01:34:16.947Z,96.10
2023-01-31T01:36:46.883Z,96.20
2023-01-31T01:39:14.772Z,96.15
2023-01-31T01:41:41.957Z,96.22
2023-01-31T01:44:43.432Z,95.84
2023-01-31T01:47:40.649Z,95.67
2023-01-31T01:50:30.351Z,95.32
2023-01-31T01:53:06.092Z,95.14
2023-01-31T01:55:44.199Z,95.28
2023-01-31T01:58:27.737Z,95.71
2023-01-31T02:01:00.531Z,95.32
2023-01-31T02:03:27.369Z,95.50
2023-01-31T02:06:05.034Z,95.42
2023-01-31T02:08:36.095Z,95.53
2023-01-31T02:11:07.555Z,95.33
2023-01-31T02:13:34.961Z,95.17
2023-01-31T02:16:01.699Z,95.23
2023-01-31T02:18:29.322Z,95.31
2023-01-31T02:21:23.055Z,95.66
2023-01-31T02:24:34.167Z,95.61
2023-01-31T02:27:17.974Z,95.31
2023-01-31T02:30:54.702Z,95.69
2023-01-31T02:33:31.243Z,95.48
2023-01-31T02:37:01.064Z,95.61
2023-01-31T02:40:02.377Z,95.48
2023-01-31T02:42:46.011Z,95.58
2023-01-31T02:45:38.107Z,94.95
2023-01-31T02:48:34.628Z,94.89
2023-01-31T02:51:20.839Z,95.27
2023-01-31T02:53:55.697Z,95.03
2023-01-31T02:56:29.266Z,94.69
2023-01-31T02:59:22.088Z,94.27
2023-01-31T03:01:57.459Z,94.27
2023-01-31T03:04:24.205Z,94.17
2023-01-31T03:07:02.341Z,94.11
2023-01-31T03:09:40.071Z,94.26
2023-01-31T03:12:51.927Z,94.39
2023-01-31T03:15:56.164Z,95.09
2023-01-31T03:19:02.499Z,94.57
2023-01-31T03:21:42.308Z,94.58
2023-01-31T03:24:09.676Z,94.62
2023-01-31T03:26:36.913Z,94.65
2023-01-31T03:29:06.395Z,95.03
2023-01-31T03:31:39.331Z,94.93
2023-01-31T03:34:11.576Z,95.54
2023-01-31T03:37:08.827Z,95.88
2023-01-31T03:40:06.173Z,96.26
2023-01-31T03:42:50.695Z,96.96
2023-01-31T03:45:27.208Z,97.47
2023-01-31T03:47:55.351Z,97.58
2023-01-31T03:50:31.376Z,97.53
2023-01-31T03:53:38.423Z,97.75
2023-01-31T03:56:10.717Z,97.85
2023-01-31T03:58:50.910Z,97.69
2023-01-31T04:01:20.665Z,98.00
2023-01-31T04:03:59.010Z,97.69
2023-01-31T04:06:27.373Z,98.29
2023-01-31T04:08:54.783Z,99.00
2023-01-31T04:11:25.808Z,99.51
2023-01-31T04:13:52.791Z,99.30
2023-01-31T04:16:20.017Z,98.85
2023-01-31T04:18:46.779Z,98.03
2023-01-31T04:21:15.495Z,96.97
2023-01-31T04:23:42.358Z,94.94
2023-01-31T04:26:09.116Z,93.45
2023-01-31T04:28:35.855Z,92.88
2023-01-31T04:31:02.636Z,92.08
2023-01-31T04:33:29.439Z,91.46
2023-01-31T04:35:56.318Z,90.84
2023-01-31T04:38:23.157Z,90.36
2023-01-31T04:40:49.881Z,90.24
2023-01-31T04:43:17.172Z,90.07
2023-01-31T04:45:43.925Z,89.94
2023-01-31T04:48:10.687Z,90.41
2023-01-31T04:50:37.462Z,91.17
2023-01-31T04:53:04.958Z,91.36
2023-01-31T04:55:31.885Z,91.35
2023-01-31T04:57:58.647Z,91.00
2023-01-31T05:00:25.552Z,91.08
2023-01-31T05:02:53.280Z,91.28
2023-01-31T05:05:21.495Z,91.35
2023-01-31T05:07:48.502Z,91.65
2023-01-31T05:10:16.127Z,91.84
2023-01-31T05:12:42.870Z,91.27
2023-01-31T05:15:11.846Z,91.23
2023-01-31T05:17:38.974Z,91.82
2023-01-31T05:20:06.792Z,92.57
2023-01-31T05:22:34.053Z,92.90
2023-01-31T05:25:00.799Z,93.30
2023-01-31T05:27:27.734Z,93.49
2023-01-31T05:29:55.174Z,93.52
2023-01-31T05:32:22.063Z,93.46
2023-01-31T05:34:48.840Z,93.28
2023-01-31T05:37:15.610Z,94.22
2023-01-31T05:39:42.406Z,94.57
2023-01-31T05:42:09.169Z,94.09
2023-01-31T05:44:35.904Z,95.42
2023-01-31T05:47:02.684Z,95.16
2023-01-31T05:49:33.627Z,95.29
2023-01-31T05:52:01.265Z,95.27
2023-01-31T05:54:28.350Z,95.42
2023-01-31T05:56:55.179Z,95.23
2023-01-31T05:59:21.987Z,95.38
2023-01-31T06:01:48.813Z,95.12
2023-01-31T06:04:15.768Z,95.08
2023-01-31T06:06:42.820Z,94.96
2023-01-31T06:09:09.716Z,95.34
2023-01-31T06:11:36.520Z,95.22
2023-01-31T06:14:03.395Z,95.14
2023-01-31T06:16:30.745Z,95.59
2023-01-31T06:18:57.959Z,95.99
2023-01-31T06:21:24.786Z,95.53
2023-01-31T06:23:51.617Z,95.45
2023-01-31T06:26:18.425Z,95.26
2023-01-31T06:28:46.295Z,94.99
2023-01-31T06:31:13.797Z,95.19
2023-01-31T06:33:47.775Z,95.12
2023-01-31T06:36:18.997Z,95.12
2023-01-31T06:38:50.985Z,94.95
2023-01-31T06:41:21.382Z,95.04
2023-01-31T06:43:48.513Z,94.96
2023-01-31T06:46:15.378Z,94.94
2023-01-31T06:48:42.223Z,95.00
2023-01-31T06:51:08.973Z,95.13
2023-01-31T06:53:36.071Z,94.72
2023-01-31T06:56:02.847Z,94.43
2023-01-31T06:58:29.621Z,94.08
2023-01-31T07:00:56.844Z,94.53
2023-01-31T07:03:23.700Z,94.24
2023-01-31T07:05:50.470Z,94.02
2023-01-31T07:08:17.265Z,94.54
2023-01-31T07:10:44.143Z,94.34
2023-01-31T07:13:10.910Z,94.50
2023-01-31T07:15:37.727Z,94.64
2023-01-31T07:18:04.843Z,94.65
2023-01-31T07:20:32.249Z,94.30
2023-01-31T07:22:59.542Z,94.64
2023-01-31T07:25:27.543Z,94.42
2023-01-31T07:27:54.396Z,94.29
2023-01-31T07:30:22.506Z,94.52
2023-01-31T07:32:49.273Z,94.82
2023-01-31T07:35:16.095Z,95.21
2023-01-31T07:37:43.668Z,95.11
2023-01-31T07:40:15.706Z,95.23
2023-01-31T07:42:42.793Z,94.65
2023-01-31T07:45:23.018Z,94.72
2023-01-31T07:47:50.536Z,94.65
2023-01-31T07:50:17.904Z,94.36
2023-01-31T07:52:44.799Z,94.06
2023-01-31T07:55:11.585Z,93.86
2023-01-31T07:57:38.341Z,93.74
2023-01-31T08:00:25.874Z,93.88
2023-01-31T08:03:11.289Z,93.84
2023-01-31T08:05:38.052Z,93.58
2023-01-31T08:08:10.789Z,93.56
2023-01-31T08:10:37.838Z,93.63
2023-01-31T08:13:06.422Z,93.45
2023-01-31T08:15:34.331Z,93.02
2023-01-31T08:18:02.074Z,92.66
2023-01-31T08:20:30.631Z,93.11
2023-01-31T08:23:00.537Z,93.17
2023-01-31T08:25:31.929Z,93.23
2023-01-31T08:28:00.410Z,93.48
2023-01-31T08:30:28.631Z,93.48
2023-01-31T08:32:56.403Z,93.33
2023-01-31T08:35:23.275Z,92.67
2023-01-31T08:37:50.026Z,92.90
2023-01-31T08:40:17.236Z,92.00
2023-01-31T08:42:44.053Z,91.74
2023-01-31T08:45:11.084Z,91.49
2023-01-31T08:47:38.947Z,91.12
2023-01-31T08:50:15.817Z,90.26
2023-01-31T08:52:54.230Z,90.43
2023-01-31T08:55:22.489Z,90.15
2023-01-31T08:57:59.305Z,89.46
2023-01-31T09:00:27.915Z,88.98
2023-01-31T09:02:59.117Z,88.74
2023-01-31T09:05:28.953Z,88.18
2023-01-31T09:07:55.891Z,87.63
2023-01-31T09:10:23.302Z,87.12
2023-01-31T09:12:50.185Z,86.67
2023-01-31T09:15:17.767Z,86.19
2023-01-31T09:17:44.681Z,86.40
2023-01-31T09:20:11.920Z,85.24
2023-01-31T09:22:38.717Z,85.47
2023-01-31T09:25:06.275Z,82.81
2023-01-31T09:27:33.324Z,82.54
2023-01-31T09:30:00.258Z,81.27
2023-01-31T09:32:27.285Z,81.59
2023-01-31T09:34:54.013Z,80.25
2023-01-31T09:37:20.737Z,78.88
2023-01-31T09:39:47.565Z,78.45
2023-01-31T09:42:32.105Z,77.69
2023-01-31T09:45:15.519Z,78.29
2023-01-31T09:47:49.694Z,78.60
2023-01-31T09:50:26.316Z,78.09
2023-01-31T09:52:53.895Z,78.17
2023-01-31T09:55:32.234Z,78.30
2023-01-31T09:58:32.101Z,78.70
2023-01-31T10:01:30.668Z,78.85
2023-01-31T10:04:02.670Z,78.61
2023-01-31T10:06:57.206Z,78.24
2023-01-31T10:09:36.039Z,77.76
2023-01-31T10:12:22.895Z,78.28
2023-01-31T10:15:01.625Z,79.30
2023-01-31T10:17:33.483Z,77.60
2023-01-31T10:20:06.096Z,77.86
2023-01-31T10:22:42.288Z,78.25
2023-01-31T10:25:40.738Z,77.11
2023-01-31T10:28:17.009Z,77.70
2023-01-31T10:30:55.815Z,77.84
2023-01-31T10:34:07.044Z,77.58
2023-01-31T10:36:40.884Z,77.51
2023-01-31T10:39:21.423Z,77.01
2023-01-31T10:42:06.957Z,77.34
2023-01-31T10:44:58.605Z,78.51
2023-01-31T10:47:41.882Z,78.84
2023-01-31T10:50:57.374Z,79.26
2023-01-31T10:54:05.460Z,78.62
2023-01-31T10:56:38.949Z,81.18
2023-01-31T10:59:25.313Z,79.31
2023-01-31T11:01:52.590Z,79.36
2023-01-31T11:04:30.824Z,79.52
2023-01-31T11:07:01.582Z,79.95
2023-01-31T11:09:34.840Z,79.85
2023-01-31T11:12:05.844Z,80.22
2023-01-31T11:14:33.213Z,80.81
2023-01-31T11:17:24.151Z,80.83
2023-01-31T11:19:56.283Z,80.76
2023-01-31T11:22:33.475Z,80.99
2023-01-31T11:25:04.383Z,81.13
2023-01-31T11:27:40.541Z,80.53
2023-01-31T11:30:22.278Z,80.87
2023-01-31T11:32:50.156Z,80.39
2023-01-31T11:35:16.800Z,80.31
2023-01-31T11:38:03.113Z,79.63
2023-01-31T11:40:37.249Z,78.94
2023-01-31T11:43:10.613Z,78.55
2023-01-31T11:45:46.474Z,76.67
2023-01-31T11:48:17.529Z,77.16
2023-01-31T11:50:56.388Z,76.45
2023-01-31T11:53:33.757Z,75.23
2023-01-31T11:56:14.239Z,75.87
2023-01-31T11:58:43.231Z,75.46
2023-01-31T12:01:17.709Z,75.18
2023-01-31T12:04:01.907Z,75.73
2023-01-31T12:06:34.747Z,74.60
2023-01-31T12:09:24.395Z,72.94
2023-01-31T12:12:08.047Z,72.22
2023-01-31T12:14:41.303Z,72.60
2023-01-31T12:17:15.206Z,69.75
2023-01-31T12:20:26.528Z,68.48
2023-01-31T12:23:03.339Z,64.57
2023-01-31T12:25:55.811Z,67.18
2023-01-31T12:29:04.571Z,65.49
2023-01-31T12:32:13.192Z,63.60
2023-01-31T12:35:00.142Z,64.19
2023-01-31T12:37:58.772Z,62.56
2023-01-31T12:40:52.528Z,62.47
2023-01-31T12:43:42.012Z,60.36
2023-01-31T12:46:20.289Z,61.39
2023-01-31T12:49:23.622Z,61.58
2023-01-31T12:52:19.889Z,59.57
2023-01-31T12:55:33.571Z,60.12
2023-01-31T12:58:28.364Z,58.23
2023-01-31T13:01:17.214Z,60.61
2023-01-31T13:04:05.893Z,59.28
2023-01-31T13:06:39.322Z,60.54
2023-01-31T13:09:24.479Z,58.24
2023-01-31T13:12:03.780Z,57.63
2023-01-31T13:14:41.878Z,59.02
2023-01-31T13:17:13.900Z,59.09
2023-01-31T13:19:54.060Z,59.70
2023-01-31T13:22:30.571Z,60.76
2023-01-31T13:25:24.053Z,59.43
2023-01-31T13:28:01.396Z,60.42
2023-01-31T13:30:40.917Z,57.71
2023-01-31T13:33:24.698Z,58.80
2023-01-31T13:36:23.039Z,60.29
2023-01-31T13:38:50.139Z,60.77
2023-01-31T13:41:32.365Z,59.15
2023-01-31T13:44:01.190Z,59.76
2023-01-31T13:46:42.480Z,60.08
2023-01-31T13:49:35.344Z,61.46
2023-01-31T13:52:15.287Z,62.12
2023-01-31T13:54:53.371Z,61.24
2023-01-31T13:57:34.599Z,61.97
2023-01-31T14:00:27.153Z,61.34
2023-01-31T14:03:07.851Z,62.61
2023-01-31T14:05:56.917Z,62.18
2023-01-31T14:08:32.568Z,62.63
2023-01-31T14:11:14.312Z,62.78
2023-01-31T14:13:50.179Z,62.54
2023-01-31T14:16:42.404Z,63.19
2023-01-31T14:19:23.996Z,61.87
2023-01-31T14:22:12.452Z,62.61
2023-01-31T14:24:53.381Z,64.08
2023-01-31T14:27:40.100Z,63.34
2023-01-31T14:30:07.094Z,62.30
2023-01-31T14:33:13.293Z,63.01
2023-01-31T14:35:57.763Z,62.79
2023-01-31T14:39:02.730Z,63.13
2023-01-31T14:41:57.226Z,63.11
2023-01-31T14:44:45.640Z,64.16
2023-01-31T14:47:39.875Z,63.78
2023-01-31T14:50:42.957Z,63.72
2023-01-31T14:53:39.018Z,63.75
2023-01-31T14:56:51.664Z,63.64
2023-01-31T14:59:35.577Z,64.05
2023-01-31T15:02:43.345Z,64.77
2023-01-31T15:05:17.800Z,64.02
2023-01-31T15:08:11.824Z,64.85
2023-01-31T15:11:03.237Z,64.81
2023-01-31T15:13:54.220Z,65.50
2023-01-31T15:16:32.111Z,66.05
2023-01-31T15:19:13.191Z,65.85
2023-01-31T15:21:53.277Z,66.60
2023-01-31T15:24:47.543Z,68.21
2023-01-31T15:27:20.354Z,68.50
2023-01-31T15:29:59.065Z,70.26
2023-01-31T15:32:42.293Z,71.05
2023-01-31T15:35:27.177Z,72.46
2023-01-31T15:38:18.241Z,73.66
2023-01-31T15:40:45.018Z,73.92
2023-01-31T15:43:25.229Z,74.75
2023-01-31T15:45:52.706Z,75.13
2023-01-31T15:48:22.190Z,74.53
2023-01-31T15:50:56.663Z,74.86
2023-01-31T15:53:31.425Z,75.05
2023-01-31T15:56:02.838Z,74.70
2023-01-31T15:58:31.225Z,74.69
2023-01-31T16:01:00.560Z,74.48
2023-01-31T16:03:35.783Z,74.83
2023-01-31T16:06:03.851Z,74.82
2023-01-31T16:08:37.006Z,75.46
2023-01-31T16:11:09.859Z,75.47
2023-01-31T16:13:40.298Z,75.69
2023-01-31T16:16:10.687Z,75.62
2023-01-31T16:18:38.555Z,75.94
2023-01-31T16:21:31.541Z,75.43
2023-01-31T16:24:19.128Z,75.59
2023-01-31T16:27:14.857Z,74.81
2023-01-31T16:29:46.839Z,74.91
2023-01-31T16:32:25.254Z,76.16
2023-01-31T16:35:08.219Z,76.33
2023-01-31T16:37:43.707Z,76.45
2023-01-31T16:40:23.418Z,76.16
2023-01-31T16:42:50.233Z,76.20
2023-01-31T16:45:28.374Z,76.22
2023-01-31T16:47:56.558Z,76.36
2023-01-31T16:50:42.397Z,76.40
2023-01-31T16:53:27.012Z,76.71
2023-01-31T16:56:15.649Z,76.96
2023-01-31T16:59:02.832Z,76.54
2023-01-31T17:01:32.924Z,76.91
2023-01-31T17:04:18.716Z,76.94
2023-01-31T17:07:02.718Z,77.29
2023-01-31T17:09:29.578Z,76.61
2023-01-31T17:11:56.950Z,76.08
2023-01-31T17:14:24.439Z,76.70
2023-01-31T17:16:54.415Z,76.80
2023-01-31T17:19:21.214Z,76.77
2023-01-31T17:21:50.206Z,77.05
2023-01-31T17:24:22.652Z,77.14
2023-01-31T17:26:50.178Z,77.07
2023-01-31T17:29:18.241Z,77.24
2023-01-31T17:31:45.047Z,76.93
2023-01-31T17:34:14.396Z,77.57
2023-01-31T17:36:42.267Z,77.54
2023-01-31T17:39:09.398Z,77.78
2023-01-31T17:41:37.620Z,78.09
2023-01-31T17:44:06.648Z,78.43
2023-01-31T17:46:33.875Z,78.46
2023-01-31T17:49:00.640Z,78.38
2023-01-31T17:51:27.437Z,79.19
2023-01-31T17:53:54.231Z,79.01
2023-01-31T17:56:21.317Z,79.20
2023-01-31T17:58:49.436Z,79.44
2023-01-31T18:01:16.514Z,79.43
2023-01-31T18:03:43.601Z,79.56
2023-01-31T18:06:10.834Z,79.64
2023-01-31T18:08:37.940Z,79.61
2023-01-31T18:11:09.983Z,79.64
2023-01-31T18:13:38.153Z,79.63
2023-01-31T18:16:12.343Z,79.67
2023-01-31T18:18:43.955Z,79.69
2023-01-31T18:21:15.902Z,79.95
2023-01-31T18:23:43.102Z,79.82
2023-01-31T18:26:11.307Z,80.08
2023-01-31T18:28:38.099Z,80.64
2023-01-31T18:31:10.551Z,81.22
2023-01-31T18:33:38.048Z,80.68
2023-01-31T18:36:06.106Z,80.42
2023-01-31T18:38:33.097Z,80.29
2023-01-31T18:41:02.617Z,80.20
2023-01-31T18:43:30.177Z,80.22
2023-01-31T18:45:56.923Z,80.27
2023-01-31T18:48:24.015Z,80.21
2023-01-31T18:50:50.744Z,79.33
2023-01-31T18:53:17.528Z,79.44
2023-01-31T18:55:44.254Z,79.55
2023-01-31T18:58:10.979Z,79.40
2023-01-31T19:00:37.772Z,80.24
2023-01-31T19:03:04.582Z,80.04
2023-01-31T19:05:31.328Z,79.52
2023-01-31T19:07:58.049Z,79.70
2023-01-31T19:10:24.784Z,79.93
2023-01-31T19:12:51.692Z,80.20
2023-01-31T19:15:18.590Z,79.99
2023-01-31T19:17:45.435Z,80.40
2023-01-31T19:20:12.756Z,80.91
2023-01-31T19:22:39.522Z,80.82
2023-01-31T19:25:09.204Z,80.93
2023-01-31T19:27:35.935Z,80.73
2023-01-31T19:30:02.917Z,81.08
2023-01-31T19:32:31.112Z,80.29
2023-01-31T19:34:57.895Z,79.78
2023-01-31T19:37:24.632Z,79.92
2023-01-31T19:39:51.384Z,80.29
2023-01-31T19:42:18.157Z,80.15
2023-01-31T19:44:44.947Z,80.76
2023-01-31T19:47:11.735Z,80.06
2023-01-31T19:49:38.516Z,80.62
2023-01-31T19:52:05.396Z,80.49
2023-01-31T19:54:32.141Z,80.75
2023-01-31T19:56:58.889Z,81.04
2023-01-31T19:59:25.641Z,81.22
2023-01-31T20:01:52.420Z,80.87
2023-01-31T20:04:19.233Z,80.79
2023-01-31T20:06:46.180Z,80.82
2023-01-31T20:09:20.284Z,80.80
2023-01-31T20:11:47.251Z,81.09
2023-01-31T20:14:13.992Z,81.13
2023-01-31T20:16:40.842Z,81.16
2023-01-31T20:19:07.780Z,81.17
2023-01-31T20:21:34.715Z,80.85
2023-01-31T20:24:01.642Z,80.64
2023-01-31T20:26:29.855Z,81.47
2023-01-31T20:28:57.045Z,81.27
2023-01-31T20:31:24.150Z,80.81
2023-01-31T20:33:52.455Z,81.54
2023-01-31T20:36:19.237Z,81.35
2023-01-31T20:38:46.027Z,81.56
2023-01-31T20:41:15.094Z,81.24
2023-01-31T20:43:42.674Z,81.59
2023-01-31T20:46:12.792Z,81.66
2023-01-31T20:48:41.014Z,81.39
2023-01-31T20:51:08.625Z,81.10
2023-01-31T20:53:35.923Z,80.70
2023-01-31T20:56:09.608Z,80.56
2023-01-31T20:58:39.431Z,80.86
2023-01-31T21:01:07.808Z,81.76
2023-01-31T21:03:36.010Z,81.90
2023-01-31T21:06:04.338Z,81.27
2023-01-31T21:08:35.748Z,81.51
2023-01-31T21:11:08.065Z,81.92
2023-01-31T21:13:36.116Z,81.81
2023-01-31T21:16:06.697Z,82.38
2023-01-31T21:18:38.081Z,82.37
2023-01-31T21:21:09.955Z,82.13
2023-01-31T21:23:39.093Z,82.07
2023-01-31T21:26:09.911Z,82.26
2023-01-31T21:28:37.675Z,82.10
2023-01-31T21:31:08.786Z,82.28
2023-01-31T21:33:36.392Z,81.77
2023-01-31T21:36:11.434Z,81.58
2023-01-31T21:38:39.841Z,81.40
2023-01-31T21:41:25.376Z,81.57
2023-01-31T21:43:52.257Z,81.93
2023-01-31T21:46:19.423Z,81.36
2023-01-31T21:48:46.353Z,81.28
2023-01-31T21:51:15.974Z,80.86
2023-01-31T21:53:43.485Z,80.86
2023-01-31T21:56:19.669Z,80.92
2023-01-31T21:58:46.921Z,81.19
2023-01-31T22:01:20.614Z,80.85
2023-01-31T22:03:50.608Z,81.46
2023-01-31T22:06:21.087Z,81.67
2023-01-31T22:08:53.156Z,81.91
2023-01-31T22:11:20.573Z,81.84
2023-01-31T22:13:51.637Z,81.41
2023-01-31T22:16:21.807Z,81.46
2023-01-31T22:18:49.427Z,82.11
2023-01-31T22:21:36.947Z,82.12
2023-01-31T22:24:07.284Z,82.51
2023-01-31T22:26:44.909Z,82.17
2023-01-31T22:29:15.674Z,82.46
2023-01-31T22:31:43.951Z,82.68
2023-01-31T22:34:15.093Z,82.74
2023-01-31T22:36:41.898Z,82.63
2023-01-31T22:39:11.923Z,82.40
2023-01-31T22:41:38.677Z,82.45
2023-01-31T22:44:05.543Z,82.56
2023-01-31T22:46:32.423Z,82.71
2023-01-31T22:48:59.378Z,83.34
2023-01-31T22:51:28.399Z,83.79
2023-01-31T22:53:57.635Z,83.53
2023-01-31T22:56:30.647Z,83.65
2023-01-31T22:59:00.266Z,83.45
2023-01-31T23:01:32.095Z,84.22
2023-01-31T23:04:02.564Z,84.50
2023-01-31T23:06:29.655Z,85.18
2023-01-31T23:08:57.538Z,85.11
2023-01-31T23:11:24.767Z,85.22
2023-01-31T23:13:51.836Z,86.07
2023-01-31T23:16:43.963Z,85.99
2023-01-31T23:19:11.674Z,86.35
2023-01-31T23:21:42.985Z,87.47
2023-01-31T23:24:11.540Z,87.59
2023-01-31T23:26:38.747Z,87.71
2023-01-31T23:29:05.557Z,88.06
2023-01-31T23:31:32.648Z,88.41
2023-01-31T23:34:00.768Z,88.14
2023-01-31T23:36:28.351Z,88.27
2023-01-31T23:38:55.270Z,87.70
2023-01-31T23:41:22.045Z,87.74
2023-01-31T23:43:48.758Z,87.63
2023-01-31T23:46:15.573Z,87.87
2023-01-31T23:48:43.432Z,87.82
2023-01-31T23:51:10.281Z,88.04
2023-01-31T23:53:37.037Z,87.84
2023-01-31T23:56:04.183Z,87.97
2023-01-31T23:58:30.973Z,87.66
